Time;durP1;ratioP1;P1;durP2;ratioP2;P2;SDS_P1;SDS_P2;PMS_P1;PMS_P2;Temp;Humidity;BMP_temperature;BMP_pressure;BME280_temperature;BME280_humidity;BME280_pressure;Samples;Min_cycle;Max_cycle;Signal;HPM_P1;HPM_P2
2022/08/29 00:00:19;;;;;;;5.05;1.90;;;19.60;42.20;;;;;;5011443;28;20061;-51
2022/08/29 00:02:50;;;;;;;6.43;1.70;;;19.60;42.20;;;;;;5020383;28;20057;-54
2022/08/29 00:05:21;;;;;;;2.70;1.52;;;19.50;42.40;;;;;;5022187;28;20391;-48
2022/08/29 00:07:48;;;;;;;4.70;1.83;;;19.50;42.50;;;;;;5020880;28;20052;-54
2022/08/29 00:10:16;;;;;;;4.55;2.00;;;19.50;42.50;;;;;;5015069;28;20062;-50
2022/08/29 00:12:44;;;;;;;5.45;2.22;;;19.50;42.60;;;;;;5016044;28;20394;-53
2022/08/29 00:15:12;;;;;;;3.53;1.58;;;19.40;42.80;;;;;;5016909;28;20501;-51
2022/08/29 00:17:41;;;;;;;5.97;2.17;;;19.30;42.70;;;;;;5019392;28;20473;-50
2022/08/29 00:20:13;;;;;;;4.75;2.40;;;19.30;42.70;;;;;;5015545;28;20537;-50
2022/08/29 00:22:40;;;;;;;4.80;1.95;;;19.30;42.80;;;;;;5019353;28;20413;-52
2022/08/29 00:25:09;;;;;;;5.45;2.15;;;19.20;42.80;;;;;;5016892;28;20045;-56
2022/08/29 00:27:36;;;;;;;6.20;2.30;;;19.20;42.80;;;;;;5021221;28;20049;-48
2022/08/29 00:30:05;;;;;;;7.28;2.28;;;19.20;43.00;;;;;;5011937;28;20501;-55
2022/08/29 00:32:33;;;;;;;6.35;2.30;;;19.10;43.10;;;;;;5017414;28;20406;-52
2022/08/29 00:35:01;;;;;;;3.95;1.90;;;19.10;43.10;;;;;;5018115;28;20425;-47
2022/08/29 00:37:30;;;;;;;5.97;2.15;;;19.10;43.20;;;;;;5021705;28;20053;-49
2022/08/29 00:39:57;;;;;;;9.23;2.78;;;19.00;43.70;;;;;;5014629;28;20062;-51
2022/08/29 00:42:25;;;;;;;6.80;2.70;;;19.00;43.20;;;;;;5020113;28;20053;-53
2022/08/29 00:44:52;;;;;;;5.72;2.13;;;19.00;43.20;;;;;;5018367;28;20057;-52
2022/08/29 00:47:22;;;;;;;6.85;2.63;;;19.00;43.10;;;;;;5019155;28;20508;-47
2022/08/29 00:49:52;;;;;;;10.50;2.75;;;18.90;43.30;;;;;;5016726;28;20053;-54
2022/08/29 00:52:27;;;;;;;5.53;2.20;;;18.90;43.50;;;;;;5020068;28;20413;-49
2022/08/29 00:54:57;;;;;;;5.35;2.13;;;18.80;43.50;;;;;;5023473;28;20405;-54
2022/08/29 00:57:26;;;;;;;6.25;2.65;;;18.80;43.70;;;;;;5025583;28;20417;-50
2022/08/29 00:59:54;;;;;;;6.93;2.20;;;18.70;43.90;;;;;;5015470;28;20766;-50
2022/08/29 01:02:22;;;;;;;8.85;2.85;;;18.70;43.90;;;;;;5020305;28;20417;-47
2022/08/29 01:04:50;;;;;;;3.55;2.00;;;18.70;44.00;;;;;;5019943;28;20516;-52
2022/08/29 01:07:19;;;;;;;8.35;2.63;;;18.60;44.10;;;;;;5016833;28;20061;-52
2022/08/29 01:09:46;;;;;;;4.78;2.00;;;18.60;44.20;;;;;;5016910;28;20061;-56
2022/08/29 01:12:15;;;;;;;6.28;2.95;;;18.60;44.30;;;;;;5016735;28;20421;-51
2022/08/29 01:14:46;;;;;;;4.65;2.50;;;18.60;44.50;;;;;;5018817;28;20502;-49
2022/08/29 01:17:19;;;;;;;8.52;2.40;;;18.50;44.60;;;;;;5020883;28;20056;-55
2022/08/29 01:19:52;;;;;;;3.22;1.70;;;18.60;44.70;;;;;;5020040;28;20065;-54
2022/08/29 01:22:40;;;;;;;4.07;1.98;;;18.50;44.60;;;;;;5023759;28;20057;-57
2022/08/29 01:25:12;;;;;;;4.35;2.20;;;18.50;44.80;;;;;;5022364;28;20544;-49
2022/08/29 01:27:43;;;;;;;6.10;1.83;;;18.50;44.70;;;;;;5022222;28;20053;-50
2022/08/29 01:30:13;;;;;;;5.60;2.17;;;18.50;44.70;;;;;;5016802;28;20054;-51
2022/08/29 01:32:41;;;;;;;6.55;2.10;;;18.50;44.70;;;;;;5017650;28;20060;-49
2022/08/29 01:35:09;;;;;;;8.48;2.28;;;18.50;44.80;;;;;;5023966;28;20060;-56
2022/08/29 01:37:38;;;;;;;4.32;2.13;;;18.50;44.60;;;;;;5024360;28;20049;-51
2022/08/29 01:40:07;;;;;;;7.35;2.50;;;18.40;44.60;;;;;;5007049;28;20046;-51
2022/08/29 01:42:36;;;;;;;3.38;2.05;;;18.40;44.70;;;;;;5023732;28;20056;-50
2022/08/29 01:45:04;;;;;;;6.13;2.05;;;18.40;44.80;;;;;;5020922;28;20405;-53
2022/08/29 01:47:33;;;;;;;3.90;2.15;;;18.30;45.00;;;;;;5017588;28;20050;-54
2022/08/29 01:50:01;;;;;;;6.25;2.10;;;18.30;45.20;;;;;;5012090;28;20050;-54
2022/08/29 01:52:30;;;;;;;4.82;1.98;;;18.30;45.20;;;;;;5020174;28;20053;-53
2022/08/29 01:54:58;;;;;;;4.90;2.40;;;18.30;45.20;;;;;;5022038;28;20053;-53
2022/08/29 01:57:25;;;;;;;8.40;2.35;;;18.30;45.30;;;;;;5016699;28;20224;-54
2022/08/29 01:59:55;;;;;;;3.00;1.60;;;18.20;45.20;;;;;;5016796;28;20062;-53
2022/08/29 02:02:26;;;;;;;4.32;1.83;;;18.20;45.20;;;;;;5013732;28;20566;-56
2022/08/29 02:04:56;;;;;;;2.75;1.70;;;18.20;45.50;;;;;;5023453;28;20516;-50
2022/08/29 02:07:24;;;;;;;4.85;2.00;;;18.20;45.50;;;;;;5020936;28;20056;-51
2022/08/29 02:09:52;;;;;;;6.70;2.28;;;18.10;45.60;;;;;;5019225;28;20049;-54
2022/08/29 02:12:20;;;;;;;4.55;2.40;;;18.10;45.60;;;;;;5010175;28;20054;-50
2022/08/29 02:14:49;;;;;;;5.47;2.63;;;18.10;45.40;;;;;;5013301;28;20050;-53
2022/08/29 02:17:18;;;;;;;4.85;2.42;;;18.10;45.50;;;;;;5016992;28;20520;-51
2022/08/29 02:19:45;;;;;;;2.88;1.85;;;18.00;45.50;;;;;;5012339;28;20052;-51
2022/08/29 02:22:14;;;;;;;6.10;2.25;;;18.00;45.50;;;;;;5020496;28;20052;-48
2022/08/29 02:24:42;;;;;;;5.15;2.25;;;17.90;45.60;;;;;;5020887;28;20054;-53
2022/08/29 02:27:11;;;;;;;4.72;2.20;;;17.90;45.70;;;;;;5020894;28;20417;-51
2022/08/29 02:29:39;;;;;;;7.22;2.42;;;17.90;45.80;;;;;;5015468;28;20489;-50
2022/08/29 02:32:09;;;;;;;5.28;2.05;;;17.90;45.70;;;;;;5010877;28;20053;-50
2022/08/29 02:34:38;;;;;;;4.82;1.90;;;17.80;45.80;;;;;;5022778;28;20053;-51
2022/08/29 02:37:06;;;;;;;5.53;2.40;;;17.80;45.90;;;;;;5021469;28;20508;-59
2022/08/29 02:39:33;;;;;;;7.28;2.35;;;17.80;46.00;;;;;;5022460;28;20057;-55
2022/08/29 02:42:01;;;;;;;3.92;1.92;;;17.80;46.10;;;;;;5022634;28;20049;-58
2022/08/29 02:44:28;;;;;;;5.38;1.83;;;17.80;46.10;;;;;;5018521;28;20053;-58
2022/08/29 02:46:56;;;;;;;6.45;2.17;;;17.80;46.20;;;;;;5018454;28;20060;-58
2022/08/29 02:49:23;;;;;;;4.35;1.70;;;17.80;46.20;;;;;;5022569;28;20045;-59
2022/08/29 02:51:51;;;;;;;3.95;1.70;;;17.70;46.10;;;;;;5019462;28;20512;-59
2022/08/29 02:54:19;;;;;;;4.38;1.88;;;17.70;46.20;;;;;;5020977;28;20068;-59
2022/08/29 02:56:46;;;;;;;3.28;1.90;;;17.70;46.20;;;;;;5018088;28;20057;-59
2022/08/29 02:59:14;;;;;;;3.63;1.65;;;17.70;46.20;;;;;;5018650;28;20056;-59
2022/08/29 03:01:41;;;;;;;3.05;1.58;;;17.70;46.20;;;;;;5008326;28;20052;-57
2022/08/29 03:04:08;;;;;;;3.15;1.85;;;17.60;46.30;;;;;;5012519;28;20409;-58
2022/08/29 03:06:35;;;;;;;3.58;2.00;;;17.60;46.40;;;;;;5023163;28;20053;-59
2022/08/29 03:09:04;;;;;;;2.28;1.55;;;17.60;46.40;;;;;;5022540;28;20053;-59
2022/08/29 03:11:31;;;;;;;5.43;2.00;;;17.60;46.50;;;;;;5014957;28;20061;-58
2022/08/29 03:13:59;;;;;;;3.63;1.95;;;17.60;46.50;;;;;;4999416;28;20053;-56
2022/08/29 03:16:27;;;;;;;3.33;1.58;;;17.50;46.50;;;;;;4992283;28;20049;-55
2022/08/29 03:18:54;;;;;;;4.18;2.22;;;17.50;46.60;;;;;;4992288;28;20501;-55
2022/08/29 03:21:25;;;;;;;4.97;1.88;;;17.50;46.70;;;;;;4991532;28;20053;-58
2022/08/29 03:23:54;;;;;;;3.08;1.77;;;17.50;46.70;;;;;;5017309;28;20053;-59
2022/08/29 03:26:23;;;;;;;4.15;2.00;;;17.50;46.80;;;;;;5017134;28;20072;-58
2022/08/29 03:28:51;;;;;;;8.38;1.92;;;17.40;46.80;;;;;;5013110;28;20061;-58
2022/08/29 03:31:18;;;;;;;4.55;2.00;;;17.40;46.80;;;;;;5013836;28;20490;-59
2022/08/29 03:33:45;;;;;;;3.40;1.45;;;17.40;46.80;;;;;;5010289;28;20068;-58
2022/08/29 03:36:13;;;;;;;3.78;1.80;;;17.40;47.00;;;;;;4996493;28;20057;-57
2022/08/29 03:38:40;;;;;;;4.57;2.30;;;17.30;47.00;;;;;;4991303;28;20054;-58
2022/08/29 03:41:08;;;;;;;5.78;2.30;;;17.30;47.10;;;;;;4988390;28;20053;-58
2022/08/29 03:43:37;;;;;;;6.38;2.10;;;17.30;47.00;;;;;;4996448;28;20538;-59
2022/08/29 03:46:04;;;;;;;6.05;2.13;;;17.30;47.00;;;;;;4993728;28;20045;-58
2022/08/29 03:48:32;;;;;;;3.88;1.90;;;17.20;47.00;;;;;;4994786;28;20605;-56
2022/08/29 03:50:59;;;;;;;3.25;1.85;;;17.20;47.00;;;;;;4995349;28;20073;-58
2022/08/29 03:53:27;;;;;;;6.93;2.17;;;17.20;47.00;;;;;;4988822;28;20445;-57
2022/08/29 03:55:54;;;;;;;6.82;2.30;;;17.20;47.10;;;;;;4993062;28;20502;-58
2022/08/29 03:58:21;;;;;;;4.13;1.73;;;17.10;47.10;;;;;;4990010;28;20050;-54
2022/08/29 04:00:50;;;;;;;3.92;1.90;;;17.10;47.30;;;;;;4988586;28;20150;-59
2022/08/29 04:03:18;;;;;;;8.45;2.05;;;17.10;47.30;;;;;;5016626;28;20056;-59
2022/08/29 04:05:46;;;;;;;4.47;2.03;;;17.10;47.30;;;;;;4997754;28;20065;-57
2022/08/29 04:08:13;;;;;;;4.28;2.03;;;17.10;47.40;;;;;;4990318;28;20397;-55
2022/08/29 04:10:41;;;;;;;4.97;2.10;;;17.00;47.40;;;;;;4993153;28;20058;-58
2022/08/29 04:13:08;;;;;;;12.15;2.47;;;17.00;47.40;;;;;;4987660;28;20064;-58
2022/08/29 04:15:38;;;;;;;7.13;2.60;;;17.00;47.50;;;;;;4997967;28;20057;-54
2022/08/29 04:18:08;;;;;;;7.35;2.70;;;17.00;47.60;;;;;;4990951;28;20065;-58
2022/08/29 04:20:38;;;;;;;4.97;2.45;;;17.00;47.90;;;;;;4997521;28;20060;-58
2022/08/29 04:23:06;;;;;;;5.03;1.73;;;17.00;47.90;;;;;;4990380;28;20065;-58
2022/08/29 04:25:35;;;;;;;6.85;2.58;;;17.00;47.90;;;;;;5010102;28;20058;-58
2022/08/29 04:28:03;;;;;;;3.38;1.80;;;17.00;48.00;;;;;;5000695;28;20050;-58
2022/08/29 04:30:31;;;;;;;5.82;2.00;;;17.00;48.10;;;;;;4997311;28;20057;-59
2022/08/29 04:32:58;;;;;;;11.77;2.45;;;17.00;48.10;;;;;;4996442;28;20068;-58
2022/08/29 04:35:27;;;;;;;9.68;2.95;;;17.00;48.00;;;;;;5009872;28;20045;-56
2022/08/29 04:37:54;;;;;;;5.25;2.60;;;16.90;47.90;;;;;;5019121;28;20397;-58
2022/08/29 04:40:22;;;;;;;6.10;2.10;;;16.90;47.80;;;;;;5013738;28;20050;-58
2022/08/29 04:42:50;;;;;;;4.57;2.22;;;16.90;47.90;;;;;;5007901;28;20072;-59
2022/08/29 04:45:20;;;;;;;3.75;1.88;;;16.90;48.00;;;;;;5000871;28;20062;-58
2022/08/29 04:47:47;;;;;;;7.40;2.40;;;16.90;48.00;;;;;;4994549;28;20062;-55
2022/08/29 04:50:17;;;;;;;5.55;2.20;;;16.90;48.00;;;;;;4997469;28;20057;-55
2022/08/29 04:52:46;;;;;;;5.82;1.90;;;16.90;48.10;;;;;;4992586;28;20054;-55
2022/08/29 04:55:15;;;;;;;4.20;2.03;;;16.80;48.10;;;;;;4988980;28;20065;-58
2022/08/29 04:57:42;;;;;;;4.70;2.13;;;16.80;48.30;;;;;;4993968;28;20053;-57
2022/08/29 05:00:13;;;;;;;4.47;2.17;;;16.80;48.30;;;;;;4995016;28;20057;-56
2022/08/29 05:02:41;;;;;;;4.32;2.10;;;16.80;48.30;;;;;;4994850;28;20050;-58
2022/08/29 05:05:10;;;;;;;8.55;2.67;;;16.80;48.30;;;;;;4995556;28;20049;-58
2022/08/29 05:07:37;;;;;;;3.67;1.63;;;16.80;48.40;;;;;;4990814;28;20057;-58
2022/08/29 05:10:09;;;;;;;3.63;2.10;;;16.70;48.40;;;;;;4994992;28;20054;-57
2022/08/29 05:12:38;;;;;;;4.90;1.88;;;16.70;48.60;;;;;;5000434;28;20058;-59
2022/08/29 05:15:06;;;;;;;5.18;2.33;;;16.70;48.70;;;;;;4988188;28;20054;-58
2022/08/29 05:17:34;;;;;;;5.85;2.22;;;16.70;48.70;;;;;;5003448;28;20061;-58
2022/08/29 05:20:03;;;;;;;3.95;1.90;;;16.70;48.70;;;;;;4982467;28;20057;-56
2022/08/29 05:22:30;;;;;;;5.22;2.38;;;16.70;48.70;;;;;;4999284;28;20067;-59
2022/08/29 05:24:58;;;;;;;4.38;1.90;;;16.70;48.70;;;;;;5020367;28;20060;-58
2022/08/29 05:27:27;;;;;;;19.17;2.58;;;16.70;48.70;;;;;;5022660;28;20060;-58
2022/08/29 05:29:54;;;;;;;15.85;2.65;;;16.60;48.70;;;;;;5013395;28;20065;-57
2022/08/29 05:32:21;;;;;;;31.98;2.47;;;16.60;48.70;;;;;;5019547;28;20057;-59
2022/08/29 05:34:49;;;;;;;17.48;2.75;;;16.60;48.70;;;;;;5016611;28;20050;-58
2022/08/29 05:37:19;;;;;;;16.10;2.33;;;16.60;48.70;;;;;;4992887;28;20811;-58
2022/08/29 05:39:47;;;;;;;10.52;2.50;;;16.60;49.00;;;;;;4986586;28;20493;-59
2022/08/29 05:42:16;;;;;;;13.35;2.47;;;16.60;49.10;;;;;;5000279;28;20505;-53
2022/08/29 05:44:44;;;;;;;21.55;3.28;;;16.60;49.20;;;;;;5000148;28;20045;-59
2022/08/29 05:47:14;;;;;;;10.95;2.58;;;16.70;49.40;;;;;;4984688;28;20050;-56
2022/08/29 05:49:43;;;;;;;15.23;2.65;;;16.60;49.40;;;;;;4994201;28;20616;-58
2022/08/29 05:52:12;;;;;;;9.07;2.42;;;16.60;49.40;;;;;;4987819;28;20058;-57
2022/08/29 05:54:41;;;;;;;25.50;2.95;;;16.60;49.40;;;;;;4985684;28;20060;-57
2022/08/29 05:57:11;;;;;;;7.45;3.08;;;16.60;49.70;;;;;;4989589;28;20058;-58
2022/08/29 05:59:40;;;;;;;15.90;3.03;;;16.60;49.70;;;;;;4991171;28;20062;-58
2022/08/29 06:02:10;;;;;;;13.70;3.13;;;16.60;49.90;;;;;;4994153;28;20921;-59
2022/08/29 06:04:39;;;;;;;27.33;4.13;;;16.60;50.10;;;;;;4992097;28;20062;-59
2022/08/29 06:07:09;;;;;;;10.55;2.97;;;16.60;50.10;;;;;;4997119;28;20058;-58
2022/08/29 06:09:37;;;;;;;7.03;2.38;;;16.50;50.00;;;;;;5015511;28;20045;-58
2022/08/29 06:12:15;;;;;;;10.00;2.80;;;16.50;50.00;;;;;;5017034;28;20058;-55
2022/08/29 06:14:42;;;;;;;7.95;2.70;;;16.50;50.00;;;;;;5019495;28;20065;-59
2022/08/29 06:17:11;;;;;;;8.00;2.67;;;16.40;50.00;;;;;;5022918;28;20076;-59
2022/08/29 06:19:39;;;;;;;12.75;3.80;;;16.40;50.10;;;;;;5018134;28;20096;-58
2022/08/29 06:22:08;;;;;;;11.07;3.08;;;16.30;50.30;;;;;;5017501;28;20076;-58
2022/08/29 06:24:36;;;;;;;4.22;2.08;;;16.30;50.50;;;;;;5010055;28;20045;-59
2022/08/29 06:27:04;;;;;;;8.20;2.42;;;16.30;50.50;;;;;;5009001;28;22149;-59
2022/08/29 06:29:32;;;;;;;5.05;2.28;;;16.30;50.70;;;;;;4997106;28;20061;-58
2022/08/29 06:32:00;;;;;;;9.07;2.63;;;16.30;50.90;;;;;;5008134;28;20054;-59
2022/08/29 06:34:29;;;;;;;6.63;2.63;;;16.40;51.00;;;;;;5006766;28;20061;-59
2022/08/29 06:36:57;;;;;;;15.88;3.20;;;16.40;51.20;;;;;;4997851;28;20049;-59
2022/08/29 06:39:24;;;;;;;7.25;2.88;;;16.40;51.20;;;;;;5000551;28;20425;-59
2022/08/29 06:41:51;;;;;;;9.18;2.65;;;16.40;51.00;;;;;;5003059;28;20054;-59
2022/08/29 06:44:20;;;;;;;15.10;2.75;;;16.50;51.10;;;;;;5004252;28;20391;-59
2022/08/29 06:46:49;;;;;;;12.35;2.83;;;16.50;51.00;;;;;;5023312;28;20057;-59
2022/08/29 06:49:18;;;;;;;5.53;2.60;;;16.50;50.90;;;;;;5006373;28;20061;-58
2022/08/29 06:51:50;;;;;;;7.47;2.80;;;16.50;50.90;;;;;;5003585;28;20057;-58
2022/08/29 06:54:20;;;;;;;13.30;3.25;;;16.60;51.00;;;;;;5009162;28;20053;-58
2022/08/29 06:56:48;;;;;;;10.68;3.13;;;16.60;51.50;;;;;;5008813;28;20049;-58
2022/08/29 06:59:16;;;;;;;8.07;2.83;;;16.60;51.10;;;;;;5015727;28;20064;-59
2022/08/29 07:01:44;;;;;;;10.07;2.60;;;16.60;51.10;;;;;;5009232;28;20638;-58
2022/08/29 07:04:12;;;;;;;5.00;2.40;;;16.70;51.20;;;;;;5021098;28;20056;-58
2022/08/29 07:06:40;;;;;;;6.65;2.95;;;16.70;51.10;;;;;;5020802;28;20072;-58
2022/08/29 07:09:09;;;;;;;7.18;2.78;;;16.70;51.10;;;;;;5007549;28;20060;-56
2022/08/29 07:11:39;;;;;;;6.03;2.83;;;16.70;51.00;;;;;;5001418;28;20054;-58
2022/08/29 07:14:07;;;;;;;13.40;3.60;;;16.80;51.40;;;;;;5012267;28;20061;-58
2022/08/29 07:16:35;;;;;;;7.47;2.65;;;16.80;51.00;;;;;;5012533;28;20053;-58
2022/08/29 07:19:04;;;;;;;11.48;2.95;;;16.80;51.10;;;;;;5002512;28;20049;-58
2022/08/29 07:21:31;;;;;;;10.55;3.10;;;16.90;51.10;;;;;;5003541;28;20056;-58
2022/08/29 07:23:59;;;;;;;6.43;2.47;;;16.90;51.00;;;;;;5005647;28;20060;-58
2022/08/29 07:26:29;;;;;;;7.43;2.45;;;16.90;51.10;;;;;;5019719;28;20061;-57
2022/08/29 07:28:59;;;;;;;8.20;2.63;;;16.90;51.00;;;;;;5012837;28;20505;-56
2022/08/29 07:31:27;;;;;;;6.38;2.75;;;17.00;51.20;;;;;;5003075;28;20048;-58
2022/08/29 07:33:54;;;;;;;5.53;2.83;;;17.00;51.10;;;;;;5017394;28;20050;-59
2022/08/29 07:36:21;;;;;;;9.30;3.13;;;17.00;51.20;;;;;;5016327;28;20429;-58
2022/08/29 07:38:48;;;;;;;7.82;3.35;;;17.00;51.30;;;;;;5021061;28;20064;-58
2022/08/29 07:41:18;;;;;;;8.02;2.78;;;17.00;51.40;;;;;;5008884;28;20405;-59
2022/08/29 07:43:49;;;;;;;9.30;2.72;;;17.00;51.50;;;;;;5010042;28;20049;-58
2022/08/29 07:46:18;;;;;;;9.73;3.25;;;17.10;51.60;;;;;;5005376;28;20487;-58
2022/08/29 07:48:47;;;;;;;10.18;3.20;;;17.10;51.40;;;;;;5003977;28;20425;-56
2022/08/29 07:51:17;;;;;;;9.85;2.75;;;17.10;51.40;;;;;;5003122;28;20072;-58
2022/08/29 07:53:45;;;;;;;11.73;3.38;;;17.20;51.40;;;;;;5004103;28;20064;-58
2022/08/29 07:56:16;;;;;;;8.75;2.95;;;17.20;51.20;;;;;;5010098;28;20053;-58
2022/08/29 07:58:44;;;;;;;5.88;2.58;;;17.20;51.20;;;;;;5013335;28;20531;-55
2022/08/29 08:01:12;;;;;;;10.05;2.90;;;17.30;51.40;;;;;;5008093;28;20053;-58
2022/08/29 08:03:41;;;;;;;10.40;3.63;;;17.40;51.40;;;;;;5017648;28;20061;-59
2022/08/29 08:06:10;;;;;;;8.07;2.83;;;17.50;51.20;;;;;;5021424;28;20049;-59
2022/08/29 08:08:38;;;;;;;5.60;2.70;;;17.50;51.00;;;;;;5013140;28;20053;-56
2022/08/29 08:11:07;;;;;;;11.60;3.00;;;17.60;51.00;;;;;;5014977;28;20056;-59
2022/08/29 08:13:35;;;;;;;8.02;3.30;;;17.60;50.80;;;;;;4996929;28;20056;-58
2022/08/29 08:16:05;;;;;;;6.57;3.00;;;17.70;50.70;;;;;;5001585;28;20296;-58
2022/08/29 08:18:37;;;;;;;6.90;3.20;;;17.80;50.60;;;;;;5015456;28;20413;-59
2022/08/29 08:21:05;;;;;;;13.60;3.30;;;17.90;50.50;;;;;;5012571;28;20045;-58
2022/08/29 08:23:32;;;;;;;14.02;3.08;;;17.90;50.40;;;;;;5014954;28;20045;-58
2022/08/29 08:26:00;;;;;;;9.85;3.13;;;18.00;50.40;;;;;;5020194;28;20049;-57
2022/08/29 08:28:29;;;;;;;9.20;2.88;;;18.10;50.20;;;;;;4996951;28;21047;-57
2022/08/29 08:30:57;;;;;;;7.40;3.60;;;18.20;50.20;;;;;;4990915;28;20065;-57
2022/08/29 08:33:24;;;;;;;7.25;2.70;;;18.20;50.30;;;;;;5014099;28;20420;-58
2022/08/29 08:35:53;;;;;;;10.07;2.92;;;18.30;50.00;;;;;;5010255;28;20413;-59
2022/08/29 08:38:21;;;;;;;8.00;3.00;;;18.40;49.90;;;;;;5016368;28;20058;-57
2022/08/29 08:41:00;;;;;;;8.52;2.83;;;18.50;49.60;;;;;;5014976;28;20073;-58
2022/08/29 08:43:41;;;;;;;8.82;2.83;;;18.50;49.50;;;;;;5018075;28;20057;-55
2022/08/29 08:46:08;;;;;;;6.93;3.20;;;18.60;49.10;;;;;;5019714;28;20054;-58
2022/08/29 08:48:38;;;;;;;8.07;2.95;;;18.70;48.90;;;;;;5016792;28;20514;-55
2022/08/29 08:51:15;;;;;;;6.95;3.05;;;18.80;48.80;;;;;;5014286;28;20409;-58
2022/08/29 08:53:44;;;;;;;8.88;3.03;;;18.90;48.90;;;;;;5018386;28;20061;-58
2022/08/29 08:56:16;;;;;;;10.32;3.05;;;18.90;48.80;;;;;;5009366;28;20806;-58
2022/08/29 08:58:50;;;;;;;6.57;2.50;;;19.00;48.60;;;;;;5012841;28;20053;-57
2022/08/29 09:01:22;;;;;;;12.02;3.92;;;19.10;48.70;;;;;;5001232;28;20490;-57
2022/08/29 09:04:09;;;;;;;11.25;3.47;;;19.10;48.70;;;;;;5016198;28;20057;-54
2022/08/29 09:06:50;;;;;;;6.53;2.40;;;19.20;48.10;;;;;;4996096;28;20061;-56
2022/08/29 09:09:26;;;;;;;6.85;2.28;;;19.30;48.30;;;;;;5019554;28;20454;-58
2022/08/29 09:12:01;;;;;;;8.60;2.78;;;19.40;48.10;;;;;;5014441;28;20505;-58
2022/08/29 09:14:43;;;;;;;8.52;2.97;;;19.50;47.80;;;;;;5020073;28;20096;-53
2022/08/29 09:17:19;;;;;;;5.60;2.63;;;19.50;46.70;;;;;;5023407;28;20068;-58
2022/08/29 09:19:47;;;;;;;8.38;2.95;;;19.60;46.90;;;;;;5009339;28;20520;-58
2022/08/29 09:22:22;;;;;;;11.52;2.60;;;19.70;47.10;;;;;;5016149;28;20068;-57
2022/08/29 09:24:54;;;;;;;5.35;2.47;;;19.80;47.00;;;;;;5013794;28;20061;-58
2022/08/29 09:27:23;;;;;;;6.18;2.38;;;19.90;46.60;;;;;;5023479;28;20498;-57
2022/08/29 09:30:01;;;;;;;7.53;2.47;;;20.00;46.40;;;;;;5012305;28;20049;-57
2022/08/29 09:32:28;;;;;;;9.25;2.83;;;20.10;45.60;;;;;;5024009;28;20075;-56
2022/08/29 09:34:55;;;;;;;7.90;3.00;;;20.20;45.20;;;;;;5019926;28;20489;-56
2022/08/29 09:37:27;;;;;;;5.63;2.55;;;20.20;45.00;;;;;;5020101;28;20064;-56
2022/08/29 09:40:00;;;;;;;6.53;2.55;;;20.30;44.90;;;;;;5022093;28;20065;-51
2022/08/29 09:42:34;;;;;;;8.10;2.72;;;20.40;44.00;;;;;;5024225;28;20049;-57
2022/08/29 09:45:07;;;;;;;8.30;2.50;;;20.40;44.10;;;;;;5014124;28;20045;-58
2022/08/29 09:47:35;;;;;;;6.78;2.05;;;20.50;44.50;;;;;;5003219;28;20060;-57
2022/08/29 09:50:09;;;;;;;6.93;2.50;;;20.60;44.70;;;;;;5008489;28;20045;-57
2022/08/29 09:52:39;;;;;;;;;;;20.70;44.60;;;;;;5016387;28;20065;-55
2022/08/29 09:55:28;;;;;;;12.10;2.40;;;20.80;44.40;;;;;;5008686;28;19932;-57
2022/08/29 09:58:00;;;;;;;6.57;2.85;;;20.90;43.30;;;;;;5019176;28;20387;-57
2022/08/29 10:00:31;;;;;;;4.75;2.40;;;21.00;43.70;;;;;;5011938;28;20058;-56
2022/08/29 10:03:01;;;;;;;5.70;2.45;;;21.10;43.80;;;;;;5023442;28;20053;-56
2022/08/29 10:05:33;;;;;;;5.60;2.13;;;21.10;43.00;;;;;;5023224;28;20072;-57
2022/08/29 10:08:04;;;;;;;6.97;2.95;;;21.10;43.20;;;;;;5022324;28;20057;-57
2022/08/29 10:10:34;;;;;;;5.55;2.40;;;21.20;42.60;;;;;;5023913;28;20064;-57
2022/08/29 10:13:09;;;;;;;6.28;2.17;;;21.30;42.70;;;;;;5014424;28;20053;-57
2022/08/29 10:15:42;;;;;;;5.68;2.40;;;21.30;42.90;;;;;;5012424;28;20041;-57
2022/08/29 10:18:23;;;;;;;5.70;2.30;;;21.40;43.00;;;;;;5018545;28;20429;-57
2022/08/29 10:20:56;;;;;;;6.18;2.10;;;21.50;42.10;;;;;;5005118;28;20057;-55
2022/08/29 10:23:30;;;;;;;8.45;2.38;;;21.50;41.20;;;;;;5008358;28;20046;-56
2022/08/29 10:26:03;;;;;;;6.50;2.10;;;21.60;40.30;;;;;;5018291;28;20056;-56
2022/08/29 10:28:38;;;;;;;6.00;2.15;;;21.70;41.10;;;;;;5019134;28;20494;-53
2022/08/29 10:31:10;;;;;;;7.35;2.58;;;21.70;40.10;;;;;;5020149;28;20064;-57
2022/08/29 10:34:08;;;;;;;8.07;2.10;;;21.80;40.30;;;;;;5022740;28;20515;-53
2022/08/29 10:36:38;;;;;;;5.90;1.95;;;21.80;40.70;;;;;;5030081;28;20061;-54
2022/08/29 10:39:15;;;;;;;4.32;2.05;;;21.90;40.70;;;;;;5015368;28;20970;-56
2022/08/29 10:41:54;;;;;;;3.80;1.60;;;22.00;40.30;;;;;;5007996;28;20053;-58
2022/08/29 10:44:32;;;;;;;5.55;2.20;;;22.00;40.50;;;;;;5009722;28;20056;-57
2022/08/29 10:47:25;;;;;;;5.68;2.42;;;22.00;40.40;;;;;;5027331;28;20060;-56
2022/08/29 10:50:09;;;;;;;2.97;1.50;;;22.10;41.10;;;;;;5008675;28;20505;-56
2022/08/29 10:52:46;;;;;;;5.28;1.80;;;22.20;40.90;;;;;;5013015;28;20049;-57
2022/08/29 10:55:22;;;;;;;4.25;1.75;;;22.20;40.20;;;;;;5022119;28;20970;-57
2022/08/29 10:58:01;;;;;;;6.15;2.13;;;22.30;40.60;;;;;;5010897;28;20061;-56
2022/08/29 11:00:37;;;;;;;4.95;1.83;;;22.30;40.60;;;;;;5014269;28;20054;-57
2022/08/29 11:03:10;;;;;;;4.15;2.15;;;22.30;40.00;;;;;;5013517;28;20417;-56
2022/08/29 11:05:43;;;;;;;5.60;1.88;;;22.40;40.30;;;;;;5010340;28;20057;-57
2022/08/29 11:08:15;;;;;;;6.22;2.33;;;22.50;40.50;;;;;;5016620;28;20079;-57
2022/08/29 11:10:48;;;;;;;4.90;1.98;;;22.50;40.60;;;;;;5004279;28;20425;-57
2022/08/29 11:13:20;;;;;;;6.15;2.15;;;22.60;40.50;;;;;;5015470;28;20058;-57
2022/08/29 11:16:04;;;;;;;5.40;2.05;;;22.70;41.00;;;;;;5008262;28;20064;-56
2022/08/29 11:18:38;;;;;;;6.32;2.13;;;22.70;40.40;;;;;;5007513;28;20045;-58
2022/08/29 11:21:16;;;;;;;4.70;2.15;;;22.80;40.60;;;;;;5021969;28;20057;-57
2022/08/29 11:23:45;;;;;;;8.85;2.35;;;22.80;40.30;;;;;;5021516;28;20395;-57
2022/08/29 11:26:23;;;;;;;4.70;2.20;;;22.90;40.20;;;;;;5025840;28;20066;-57
2022/08/29 11:28:57;;;;;;;8.30;2.55;;;22.90;40.30;;;;;;5022286;28;20057;-57
2022/08/29 11:31:47;;;;;;;5.93;2.38;;;22.90;39.30;;;;;;5012515;28;20061;-57
2022/08/29 11:34:25;;;;;;;5.82;2.17;;;23.00;40.00;;;;;;5017794;28;20921;-57
2022/08/29 11:37:15;;;;;;;7.07;2.83;;;23.00;40.10;;;;;;5010883;28;20073;-55
2022/08/29 11:39:50;;;;;;;6.57;3.40;;;23.10;39.50;;;;;;5013170;28;20425;-57
2022/08/29 11:42:22;;;;;;;6.95;2.40;;;23.10;39.00;;;;;;5010891;28;20049;-54
2022/08/29 11:44:54;;;;;;;4.57;2.25;;;23.10;38.00;;;;;;5017730;28;20060;-55
2022/08/29 11:47:40;;;;;;;6.63;2.38;;;23.20;38.30;;;;;;5016209;28;20053;-57
2022/08/29 11:50:27;;;;;;;4.20;1.90;;;23.20;37.90;;;;;;5021124;28;20421;-57
2022/08/29 11:52:58;;;;;;;11.38;2.17;;;23.30;38.10;;;;;;5020102;28;20061;-56
2022/08/29 11:55:30;;;;;;;5.30;2.17;;;23.40;37.90;;;;;;5028600;28;20057;-57
2022/08/29 11:58:02;;;;;;;4.95;2.28;;;23.40;38.20;;;;;;5025109;28;20060;-58
2022/08/29 12:00:40;;;;;;;8.60;2.05;;;23.50;38.00;;;;;;5018657;28;20060;-56
2022/08/29 12:03:53;;;;;;;4.63;1.80;;;23.60;37.60;;;;;;5022687;28;20049;-56
2022/08/29 12:06:36;;;;;;;7.97;2.47;;;23.60;37.40;;;;;;5023264;28;20064;-54
2022/08/29 12:09:34;;;;;;;4.50;2.10;;;23.70;36.60;;;;;;5026159;28;20050;-56
2022/08/29 12:12:36;;;;;;;3.95;1.90;;;23.80;36.40;;;;;;5018024;28;20072;-57
2022/08/29 12:15:45;;;;;;;8.80;1.95;;;23.80;37.40;;;;;;5020737;28;20057;-56
2022/08/29 12:18:49;;;;;;;2.85;1.70;;;23.90;36.70;;;;;;5025105;28;20066;-57
2022/08/29 12:21:50;;;;;;;6.95;1.85;;;24.00;36.20;;;;;;5017160;28;20054;-57
2022/08/29 12:24:36;;;;;;;4.18;1.95;;;24.00;36.30;;;;;;4988673;28;20062;-57
2022/08/29 12:27:04;;;;;;;6.05;2.22;;;24.10;35.90;;;;;;4978058;28;20054;-56
2022/08/29 12:29:33;;;;;;;5.20;1.80;;;24.10;35.50;;;;;;5008600;28;20497;-55
2022/08/29 12:32:23;;;;;;;3.53;1.75;;;24.20;35.30;;;;;;5027339;28;20065;-56
2022/08/29 12:35:12;;;;;;;2.60;1.63;;;24.20;35.40;;;;;;5025503;28;20045;-57
2022/08/29 12:37:54;;;;;;;3.05;1.60;;;24.20;35.20;;;;;;5022505;28;20065;-56
2022/08/29 12:40:40;;;;;;;5.28;2.35;;;24.30;35.40;;;;;;5016468;28;20072;-56
2022/08/29 12:43:28;;;;;;;4.28;2.00;;;24.40;35.30;;;;;;5016618;28;20057;-57
2022/08/29 12:45:56;;;;;;;4.85;2.03;;;24.40;35.50;;;;;;5020563;28;20057;-57
2022/08/29 12:48:26;;;;;;;2.72;1.50;;;24.50;35.50;;;;;;5021686;28;20065;-57
2022/08/29 12:50:55;;;;;;;3.25;1.70;;;24.60;35.70;;;;;;5020412;28;20417;-57
2022/08/29 12:53:25;;;;;;;4.15;1.52;;;24.60;35.30;;;;;;5023935;28;20068;-57
2022/08/29 12:55:54;;;;;;;4.32;1.90;;;24.70;35.70;;;;;;5024906;28;20060;-56
2022/08/29 12:58:36;;;;;;;3.72;1.50;;;24.80;35.80;;;;;;5023687;28;20054;-57
2022/08/29 13:01:07;;;;;;;2.83;1.67;;;24.80;35.50;;;;;;5019629;28;20061;-57
2022/08/29 13:03:35;;;;;;;3.42;1.98;;;24.90;35.70;;;;;;5023060;28;20505;-56
2022/08/29 13:06:06;;;;;;;5.40;1.85;;;24.90;34.10;;;;;;5031938;28;20520;-56